createdAt,value
2018-12-25T00:02:18.629Z,94.10
2018-12-25T00:04:49.105Z,94.20
2018-12-25T00:07:19.436Z,94.60
2018-12-25T00:09:49.775Z,94.70
2018-12-25T00:12:20.267Z,94.90
2018-12-25T00:14:50.630Z,94.80
2018-12-25T00:17:20.975Z,94.40
2018-12-25T00:19:51.367Z,94.90
2018-12-25T00:22:21.651Z,95.10
2018-12-25T00:24:51.992Z,95.40
2018-12-25T00:27:22.385Z,95.60
2018-12-25T00:29:52.732Z,95.20
2018-12-25T00:32:23.071Z,94.70
2018-12-25T00:34:53.496Z,94.50
2018-12-25T00:37:23.959Z,94.30
2018-12-25T00:39:54.295Z,94.20
2018-12-25T00:42:24.701Z,94.50
2018-12-25T00:44:54.996Z,94.20
2018-12-25T00:47:25.776Z,94.20
2018-12-25T00:49:56.235Z,94.20
2018-12-25T00:52:26.538Z,94.00
2018-12-25T00:54:56.880Z,93.90
2018-12-25T00:57:27.290Z,93.50
2018-12-25T00:59:57.646Z,94.00
2018-12-25T01:02:28.037Z,94.70
2018-12-25T01:04:58.529Z,94.90
2018-12-25T01:07:28.861Z,94.60
2018-12-25T01:09:59.177Z,95.00
2018-12-25T01:12:29.573Z,94.90
2018-12-25T01:14:59.915Z,94.90
2018-12-25T01:17:30.762Z,95.30
2018-12-25T01:20:01.224Z,95.30
2018-12-25T01:22:31.542Z,95.20
2018-12-25T01:25:01.854Z,95.10
2018-12-25T01:27:32.270Z,94.80
2018-12-25T01:30:02.601Z,94.50
2018-12-25T01:32:32.960Z,94.40
2018-12-25T01:35:03.479Z,94.50
2018-12-25T01:37:33.832Z,94.90
2018-12-25T01:40:04.187Z,94.70
2018-12-25T01:42:34.537Z,94.70
2018-12-25T01:45:05.358Z,95.40
2018-12-25T01:47:36.216Z,95.70
2018-12-25T01:50:06.772Z,95.80
2018-12-25T01:52:37.055Z,95.80
2018-12-25T01:55:08.380Z,96.10
2018-12-25T01:57:38.689Z,96.20
2018-12-25T02:00:09.141Z,96.80
2018-12-25T02:02:39.548Z,96.60
2018-12-25T02:05:09.901Z,96.80
2018-12-25T02:07:40.192Z,97.20
2018-12-25T02:10:10.737Z,97.10
2018-12-25T02:12:41.089Z,97.10
2018-12-25T02:15:11.373Z,97.20
2018-12-25T02:17:41.802Z,97.10
2018-12-25T02:20:12.125Z,97.40
2018-12-25T02:22:42.401Z,97.70
2018-12-25T02:25:12.904Z,97.90
2018-12-25T02:27:43.168Z,98.70
2018-12-25T02:30:13.546Z,98.60
2018-12-25T02:32:43.944Z,98.60
2018-12-25T02:35:15.576Z,98.50
2018-12-25T02:37:46.840Z,98.50
2018-12-25T02:40:17.360Z,99.30
2018-12-25T02:42:47.674Z,99.70
2018-12-25T02:45:18.017Z,99.70
2018-12-25T02:47:48.415Z,99.40
2018-12-25T02:50:19.158Z,99.70
2018-12-25T02:52:49.469Z,99.90
2018-12-25T02:55:19.903Z,99.90
2018-12-25T02:57:50.227Z,99.90
2018-12-25T03:00:20.572Z,99.90
2018-12-25T03:02:50.986Z,99.90
2018-12-25T03:05:21.314Z,99.90
2018-12-25T03:07:51.648Z,99.90
2018-12-25T03:10:22.158Z,99.90
2018-12-25T03:12:52.484Z,99.90
2018-12-25T03:15:22.851Z,99.90
2018-12-25T03:17:53.211Z,99.90
2018-12-25T03:20:23.641Z,99.90
2018-12-25T03:22:53.960Z,99.90
2018-12-25T03:25:24.377Z,99.90
2018-12-25T03:27:54.713Z,99.90
2018-12-25T03:30:25.079Z,99.90
2018-12-25T03:32:55.498Z,99.90
2018-12-25T03:35:25.838Z,99.90
2018-12-25T03:37:56.233Z,99.90
2018-12-25T03:40:26.746Z,99.90
2018-12-25T03:42:57.035Z,99.90
2018-12-25T03:45:27.338Z,99.90
2018-12-25T03:47:57.744Z,99.90
2018-12-25T03:50:28.094Z,99.90
2018-12-25T03:52:58.731Z,99.90
2018-12-25T03:55:29.307Z,99.90
2018-12-25T03:57:59.608Z,99.90
2018-12-25T04:00:29.933Z,99.90
2018-12-25T04:03:00.602Z,99.90
2018-12-25T04:05:30.924Z,99.90
2018-12-25T04:08:01.213Z,99.90
2018-12-25T04:10:31.692Z,99.90
2018-12-25T04:13:02.001Z,99.90
2018-12-25T04:15:32.469Z,99.90
2018-12-25T04:18:03.067Z,99.90
2018-12-25T04:20:33.397Z,99.90
2018-12-25T04:23:03.773Z,99.90
2018-12-25T04:25:34.240Z,99.90
2018-12-25T04:28:04.519Z,99.90
2018-12-25T04:30:34.856Z,99.90
2018-12-25T04:33:05.255Z,99.90
2018-12-25T04:35:35.611Z,99.90
2018-12-25T04:38:05.890Z,99.90
2018-12-25T04:40:36.425Z,99.90
2018-12-25T04:43:06.765Z,99.90
2018-12-25T04:45:37.150Z,99.90
2018-12-25T04:48:07.506Z,99.90
2018-12-25T04:50:37.864Z,99.90
2018-12-25T04:53:08.236Z,99.90
2018-12-25T04:55:39.088Z,99.90
2018-12-25T04:58:09.459Z,99.90
2018-12-25T05:00:39.808Z,99.90
2018-12-25T05:03:10.214Z,99.90
2018-12-25T05:05:40.526Z,99.90
2018-12-25T05:08:10.934Z,99.90
2018-12-25T05:10:41.339Z,99.90
2018-12-25T05:13:11.664Z,99.90
2018-12-25T05:15:42.044Z,99.90
2018-12-25T05:18:12.441Z,99.90
2018-12-25T05:20:42.963Z,99.90
2018-12-25T05:23:21.805Z,99.90
2018-12-25T05:25:52.187Z,99.90
2018-12-25T05:28:22.527Z,99.90
2018-12-25T05:30:53.002Z,99.90
2018-12-25T05:33:23.397Z,99.90
2018-12-25T05:35:53.746Z,99.90
2018-12-25T05:38:24.160Z,99.90
2018-12-25T05:40:54.550Z,99.90
2018-12-25T05:43:24.885Z,99.90
2018-12-25T05:45:55.332Z,99.90
2018-12-25T05:48:25.702Z,99.90
2018-12-25T05:50:56.036Z,99.90
2018-12-25T05:53:26.467Z,99.90
2018-12-25T05:55:56.975Z,99.90
2018-12-25T05:58:27.367Z,99.90
2018-12-25T06:00:57.856Z,99.90
2018-12-25T06:03:28.167Z,99.90
2018-12-25T06:05:58.508Z,99.90
2018-12-25T06:08:28.943Z,99.90
2018-12-25T06:10:59.320Z,99.90
2018-12-25T06:13:29.656Z,99.90
2018-12-25T06:16:00.096Z,99.90
2018-12-25T06:18:30.411Z,99.90
2018-12-25T06:21:00.772Z,99.90
2018-12-25T06:23:31.246Z,99.90
2018-12-25T06:26:01.563Z,99.90
2018-12-25T06:28:31.880Z,99.90
2018-12-25T06:31:02.381Z,99.90
2018-12-25T06:33:32.704Z,99.90
2018-12-25T06:36:03.123Z,99.90
2018-12-25T06:38:33.510Z,99.90
2018-12-25T06:41:03.864Z,99.90
2018-12-25T06:43:34.236Z,99.90
2018-12-25T06:46:04.644Z,99.90
2018-12-25T06:48:35.018Z,99.90
2018-12-25T06:51:05.379Z,99.90
2018-12-25T06:53:35.813Z,99.90
2018-12-25T06:56:06.406Z,99.90
2018-12-25T06:58:36.765Z,99.90
2018-12-25T07:01:07.262Z,99.90
2018-12-25T07:03:37.567Z,99.90
2018-12-25T07:06:07.971Z,99.90
2018-12-25T07:08:41.538Z,99.90
2018-12-25T07:11:11.930Z,99.90
2018-12-25T07:13:42.288Z,99.90
2018-12-25T07:16:12.803Z,99.90
2018-12-25T07:18:43.730Z,99.90
2018-12-25T07:21:14.113Z,99.90
2018-12-25T07:23:44.557Z,99.90
2018-12-25T07:26:14.975Z,99.90
2018-12-25T07:28:45.344Z,99.90
2018-12-25T07:31:15.810Z,99.90
2018-12-25T07:33:46.175Z,99.90
2018-12-25T07:36:16.640Z,99.90
2018-12-25T07:38:47.054Z,99.90
2018-12-25T07:41:17.451Z,99.90
2018-12-25T07:43:47.888Z,99.90
2018-12-25T07:46:18.198Z,99.90
2018-12-25T07:48:48.489Z,99.90
2018-12-25T07:51:20.891Z,99.90
2018-12-25T07:53:50.687Z,99.90
2018-12-25T07:56:21.609Z,99.90
2018-12-25T07:58:51.917Z,99.90
2018-12-25T08:01:22.256Z,99.90
2018-12-25T08:03:52.677Z,99.90
2018-12-25T08:06:23.068Z,99.90
2018-12-25T08:08:53.395Z,99.90
2018-12-25T08:11:23.815Z,99.90
2018-12-25T08:13:54.123Z,99.90
2018-12-25T08:16:24.508Z,99.90
2018-12-25T08:18:54.886Z,99.90
2018-12-25T08:21:29.286Z,99.90
2018-12-25T08:23:57.143Z,99.90
2018-12-25T08:26:27.548Z,99.90
2018-12-25T08:28:57.872Z,99.90
2018-12-25T08:31:28.373Z,99.90
2018-12-25T08:33:58.705Z,99.90
2018-12-25T08:36:29.054Z,99.90
2018-12-25T08:38:59.465Z,99.90
2018-12-25T08:41:29.833Z,99.90
2018-12-25T08:44:00.159Z,99.90
2018-12-25T08:46:30.681Z,99.90
2018-12-25T08:49:00.990Z,99.90
2018-12-25T08:51:37.658Z,99.90
2018-12-25T08:54:03.178Z,99.90
2018-12-25T08:56:33.518Z,99.90
2018-12-25T08:59:04.180Z,99.90
2018-12-25T09:01:34.737Z,99.90
2018-12-25T09:04:05.084Z,99.90
2018-12-25T09:06:35.413Z,99.90
2018-12-25T09:09:07.632Z,99.90
2018-12-25T09:11:38.002Z,99.90
2018-12-25T09:14:08.326Z,99.90
2018-12-25T09:16:38.893Z,99.90
2018-12-25T09:19:09.236Z,99.90
2018-12-25T09:21:46.213Z,99.90
2018-12-25T09:24:11.414Z,99.90
2018-12-25T09:26:41.782Z,99.90
2018-12-25T09:29:12.210Z,99.90
2018-12-25T09:31:42.635Z,99.90
2018-12-25T09:34:12.980Z,99.90
2018-12-25T09:36:43.267Z,99.90
2018-12-25T09:39:13.726Z,99.90
2018-12-25T09:41:44.058Z,99.90
2018-12-25T09:44:14.417Z,99.90
2018-12-25T09:46:44.934Z,99.90
2018-12-25T09:49:15.241Z,99.90
2018-12-25T09:51:45.576Z,99.90
2018-12-25T09:54:15.985Z,99.90
2018-12-25T09:56:46.284Z,99.90
2018-12-25T09:59:16.631Z,99.90
2018-12-25T10:01:47.589Z,99.90
2018-12-25T10:04:17.926Z,99.90
2018-12-25T10:06:48.213Z,99.90
2018-12-25T10:09:18.586Z,99.90
2018-12-25T10:11:48.939Z,99.90
2018-12-25T10:14:19.291Z,99.90
2018-12-25T10:16:49.954Z,99.90
2018-12-25T10:19:20.551Z,99.90
2018-12-25T10:21:50.907Z,99.90
2018-12-25T10:24:21.299Z,99.90
2018-12-25T10:26:51.659Z,99.90
2018-12-25T10:29:22.016Z,99.90
2018-12-25T10:31:52.468Z,99.90
2018-12-25T10:34:22.818Z,99.90
2018-12-25T10:36:53.154Z,99.90
2018-12-25T10:39:23.558Z,99.90
2018-12-25T10:41:53.856Z,99.90
2018-12-25T10:44:24.179Z,99.90
2018-12-25T10:46:54.667Z,99.90
2018-12-25T10:49:24.969Z,99.90
2018-12-25T10:51:55.316Z,99.90
2018-12-25T10:54:25.761Z,99.90
2018-12-25T10:56:56.112Z,99.90
2018-12-25T10:59:26.539Z,99.90
2018-12-25T11:01:57.542Z,99.90
2018-12-25T11:04:27.899Z,99.90
2018-12-25T11:06:58.221Z,99.90
2018-12-25T11:09:28.629Z,99.90
2018-12-25T11:11:58.949Z,99.90
2018-12-25T11:14:29.300Z,99.90
2018-12-25T11:16:59.755Z,99.90
2018-12-25T11:19:30.070Z,99.90
2018-12-25T11:22:00.407Z,99.90
2018-12-25T11:24:30.806Z,99.90
2018-12-25T11:27:01.133Z,99.90
2018-12-25T11:29:32.193Z,99.90
2018-12-25T11:32:02.673Z,99.90
2018-12-25T11:34:33.002Z,99.90
2018-12-25T11:37:03.373Z,99.90
2018-12-25T11:39:33.745Z,99.90
2018-12-25T11:42:04.088Z,99.90
2018-12-25T11:44:34.409Z,99.90
2018-12-25T11:47:04.922Z,99.90
2018-12-25T11:49:35.220Z,99.90
2018-12-25T11:52:05.562Z,99.90
2018-12-25T11:54:35.994Z,99.90
2018-12-25T11:57:06.339Z,99.90
2018-12-25T11:59:36.663Z,99.90
2018-12-25T12:02:07.064Z,99.90
2018-12-25T12:04:37.802Z,99.90
2018-12-25T12:07:08.145Z,99.90
2018-12-25T12:09:38.556Z,99.90
2018-12-25T12:12:08.908Z,99.90
2018-12-25T12:14:39.266Z,99.90
2018-12-25T12:17:09.723Z,99.90
2018-12-25T12:19:40.039Z,99.90
2018-12-25T12:22:10.379Z,99.90
2018-12-25T12:24:40.724Z,99.90
2018-12-25T12:27:11.175Z,99.90
2018-12-25T12:29:41.538Z,99.90
2018-12-25T12:32:11.996Z,99.90
2018-12-25T12:34:42.339Z,99.90
2018-12-25T12:37:12.678Z,99.90
2018-12-25T12:39:43.095Z,99.90
2018-12-25T12:42:13.387Z,99.90
2018-12-25T12:44:43.737Z,99.90
2018-12-25T12:47:14.238Z,99.90
2018-12-25T12:49:44.563Z,99.90
2018-12-25T12:52:14.957Z,99.90
2018-12-25T12:54:45.373Z,99.90
2018-12-25T12:57:15.717Z,99.90
2018-12-25T12:59:46.054Z,99.90
2018-12-25T13:02:16.511Z,99.90
2018-12-25T13:04:47.088Z,99.90
2018-12-25T13:07:17.441Z,99.90
2018-12-25T13:09:47.789Z,99.90
2018-12-25T13:12:18.182Z,99.90
2018-12-25T13:14:48.609Z,99.90
2018-12-25T13:17:19.181Z,99.90
2018-12-25T13:19:50.152Z,99.90
2018-12-25T13:22:21.879Z,99.90
2018-12-25T13:24:52.205Z,99.90
2018-12-25T13:27:22.535Z,99.90
2018-12-25T13:29:52.891Z,99.90
2018-12-25T13:32:23.306Z,99.90
2018-12-25T13:34:53.644Z,99.90
2018-12-25T13:37:24.087Z,99.90
2018-12-25T13:39:54.371Z,99.90
2018-12-25T13:42:24.751Z,99.90
2018-12-25T13:44:55.126Z,99.90
2018-12-25T13:47:25.481Z,99.90
2018-12-25T13:49:55.813Z,99.90
2018-12-25T13:52:26.338Z,99.90
2018-12-25T13:54:56.692Z,99.90
2018-12-25T13:57:27.010Z,99.90
2018-12-25T13:59:57.358Z,99.90
2018-12-25T14:02:27.713Z,99.90
2018-12-25T14:04:58.055Z,99.90
2018-12-25T14:07:28.962Z,99.90
2018-12-25T14:09:59.305Z,99.90
2018-12-25T14:12:29.857Z,99.90
2018-12-25T14:15:00.288Z,99.90
2018-12-25T14:17:30.553Z,99.90
2018-12-25T14:20:00.887Z,99.90
2018-12-25T14:22:31.452Z,99.90
2018-12-25T14:25:01.766Z,99.90
2018-12-25T14:27:32.135Z,99.90
2018-12-25T14:30:02.510Z,99.90
2018-12-25T14:32:32.919Z,99.90
2018-12-25T14:35:03.208Z,99.90
2018-12-25T14:37:33.796Z,99.90
2018-12-25T14:40:04.147Z,99.90
2018-12-25T14:42:34.524Z,99.90
2018-12-25T14:45:04.905Z,99.90
2018-12-25T14:47:35.198Z,99.90
2018-12-25T14:50:07.946Z,99.90
2018-12-25T14:52:38.313Z,99.90
2018-12-25T14:55:08.666Z,99.90
2018-12-25T14:57:39.262Z,99.60
2018-12-25T15:00:11.815Z,99.10
2018-12-25T15:02:42.245Z,98.20
2018-12-25T15:05:12.584Z,96.60
2018-12-25T15:07:43.511Z,95.40
2018-12-25T15:10:13.965Z,94.20
2018-12-25T15:12:44.272Z,93.60
2018-12-25T15:15:14.639Z,92.90
2018-12-25T15:17:45.082Z,92.50
2018-12-25T15:20:15.366Z,91.70
2018-12-25T15:22:45.706Z,90.50
2018-12-25T15:25:16.152Z,88.90
2018-12-25T15:27:46.412Z,87.00
2018-12-25T15:30:16.795Z,86.30
2018-12-25T15:32:47.192Z,84.90
2018-12-25T15:35:17.535Z,82.70
2018-12-25T15:37:47.807Z,81.20
2018-12-25T15:40:18.179Z,82.50
2018-12-25T15:42:48.539Z,81.50
2018-12-25T15:45:18.888Z,79.50
2018-12-25T15:47:49.356Z,77.10
2018-12-25T15:50:19.724Z,78.00
2018-12-25T15:52:50.048Z,76.60
2018-12-25T15:55:20.461Z,76.10
2018-12-25T15:57:53.681Z,75.20
2018-12-25T16:00:24.166Z,73.40
2018-12-25T16:02:54.479Z,73.10
2018-12-25T16:05:24.833Z,73.40
2018-12-25T16:07:55.279Z,72.50
2018-12-25T16:10:26.761Z,72.10
2018-12-25T16:12:57.116Z,71.70
2018-12-25T16:15:27.478Z,74.40
2018-12-25T16:17:57.815Z,75.20
2018-12-25T16:20:28.178Z,72.50
2018-12-25T16:22:58.636Z,70.30
2018-12-25T16:25:28.997Z,69.10
2018-12-25T16:27:59.393Z,70.30
2018-12-25T16:30:29.750Z,69.40
2018-12-25T16:33:00.122Z,68.90
2018-12-25T16:35:30.405Z,68.20
2018-12-25T16:38:00.820Z,69.20
2018-12-25T16:40:31.150Z,68.90
2018-12-25T16:43:01.425Z,67.90
2018-12-25T16:45:31.869Z,67.30
2018-12-25T16:48:02.197Z,66.40
2018-12-25T16:50:32.623Z,65.00
2018-12-25T16:53:03.082Z,64.00
2018-12-25T16:55:33.441Z,64.80
2018-12-25T16:58:03.769Z,66.80
2018-12-25T17:00:34.208Z,67.70
2018-12-25T17:03:04.508Z,67.60
2018-12-25T17:05:34.865Z,67.40
2018-12-25T17:08:05.317Z,66.60
2018-12-25T17:10:35.734Z,65.70
2018-12-25T17:13:06.243Z,65.50
2018-12-25T17:15:36.616Z,64.20
2018-12-25T17:18:06.916Z,65.20
2018-12-25T17:20:37.313Z,64.60
2018-12-25T17:23:07.744Z,65.00
2018-12-25T17:25:38.108Z,65.20
2018-12-25T17:28:08.424Z,64.40
2018-12-25T17:30:38.810Z,64.00
2018-12-25T17:33:09.143Z,63.00
2018-12-25T17:35:39.523Z,64.90
2018-12-25T17:38:11.881Z,65.80
2018-12-25T17:40:41.754Z,64.30
2018-12-25T17:43:12.349Z,65.40
2018-12-25T17:45:42.760Z,64.90
2018-12-25T17:48:13.121Z,66.00
2018-12-25T17:50:43.510Z,68.30
2018-12-25T17:53:13.851Z,65.80
2018-12-25T17:55:44.135Z,64.90
2018-12-25T17:58:14.606Z,64.50
2018-12-25T18:00:44.939Z,63.40
2018-12-25T18:03:15.296Z,63.30
2018-12-25T18:05:45.689Z,63.90
2018-12-25T18:08:15.975Z,65.70
2018-12-25T18:10:46.330Z,67.90
2018-12-25T18:13:16.829Z,67.60
2018-12-25T18:15:47.453Z,68.70
2018-12-25T18:18:17.813Z,68.30
2018-12-25T18:20:48.166Z,68.20
2018-12-25T18:23:18.541Z,68.20
2018-12-25T18:25:48.885Z,66.00
2018-12-25T18:28:19.273Z,66.40
2018-12-25T18:30:49.685Z,67.80
2018-12-25T18:33:20.086Z,67.50
2018-12-25T18:35:50.487Z,66.30
2018-12-25T18:38:20.823Z,66.20
2018-12-25T18:40:51.175Z,66.00
2018-12-25T18:43:21.693Z,67.20
2018-12-25T18:45:52.032Z,67.70
2018-12-25T18:48:22.376Z,66.40
2018-12-25T18:50:52.771Z,65.80
2018-12-25T18:53:23.145Z,65.60
2018-12-25T18:55:53.477Z,67.90
2018-12-25T18:58:23.962Z,67.90
2018-12-25T19:00:54.237Z,67.40
2018-12-25T19:03:24.555Z,67.50
2018-12-25T19:05:55.014Z,68.30
2018-12-25T19:08:25.348Z,67.70
2018-12-25T19:10:55.693Z,67.10
2018-12-25T19:13:26.170Z,66.40
2018-12-25T19:15:56.516Z,67.00
2018-12-25T19:18:27.158Z,68.50
2018-12-25T19:20:58.102Z,69.40
2018-12-25T19:23:28.451Z,68.60
2018-12-25T19:25:58.803Z,67.90
2018-12-25T19:28:29.259Z,67.00
2018-12-25T19:30:59.543Z,67.30
2018-12-25T19:33:29.884Z,67.30
2018-12-25T19:36:00.302Z,65.90
2018-12-25T19:38:30.629Z,66.40
2018-12-25T19:41:00.956Z,66.80
2018-12-25T19:43:31.437Z,66.90
2018-12-25T19:46:01.880Z,65.10
2018-12-25T19:48:32.207Z,64.80
2018-12-25T19:51:02.604Z,65.00
2018-12-25T19:53:32.932Z,65.30
2018-12-25T19:56:03.369Z,67.40
2018-12-25T19:58:33.718Z,66.90
2018-12-25T20:01:04.051Z,67.10
2018-12-25T20:03:36.057Z,68.00
2018-12-25T20:06:25.495Z,70.00
2018-12-25T20:09:22.716Z,71.40
2018-12-25T20:12:04.639Z,72.40
2018-12-25T20:14:43.096Z,72.70
2018-12-25T20:17:37.073Z,73.50
2018-12-25T20:20:28.638Z,74.30
2018-12-25T20:23:19.537Z,74.60
2018-12-25T20:26:10.479Z,74.20
2018-12-25T20:28:58.456Z,73.70
2018-12-25T20:31:47.839Z,75.60
2018-12-25T20:34:29.676Z,73.80
2018-12-25T20:37:23.664Z,74.00
2018-12-25T20:40:05.354Z,74.20
2018-12-25T20:42:54.875Z,74.60
2018-12-25T20:45:34.030Z,74.30
2018-12-25T20:48:18.804Z,75.40
2018-12-25T20:51:06.497Z,75.90
2018-12-25T20:53:59.084Z,75.40
2018-12-25T20:56:50.085Z,74.60
2018-12-25T20:59:25.546Z,76.00
2018-12-25T21:02:00.932Z,75.30
2018-12-25T21:05:00.194Z,76.90
2018-12-25T21:07:49.332Z,77.60
2018-12-25T21:10:46.541Z,78.70
2018-12-25T21:13:22.253Z,79.60
2018-12-25T21:16:14.996Z,81.30
2018-12-25T21:19:13.620Z,81.60
2018-12-25T21:21:52.942Z,82.00
2018-12-25T21:24:58.912Z,80.60
2018-12-25T21:27:30.572Z,80.00
2018-12-25T21:30:02.180Z,79.20
2018-12-25T21:32:34.099Z,80.50
2018-12-25T21:35:09.679Z,81.00
2018-12-25T21:37:40.158Z,82.00
2018-12-25T21:40:10.896Z,81.90
2018-12-25T21:42:41.334Z,81.60
2018-12-25T21:45:12.112Z,81.50
2018-12-25T21:47:42.654Z,82.40
2018-12-25T21:50:13.628Z,82.40
2018-12-25T21:52:44.263Z,82.20
2018-12-25T21:55:18.930Z,81.40
2018-12-25T21:57:47.672Z,81.50
2018-12-25T22:00:18.004Z,81.70
2018-12-25T22:02:48.757Z,82.70
2018-12-25T22:05:19.452Z,83.40
2018-12-25T22:07:49.731Z,83.80
2018-12-25T22:10:20.293Z,83.80
2018-12-25T22:12:50.750Z,83.50
2018-12-25T22:15:21.381Z,84.70
2018-12-25T22:17:51.808Z,85.40
2018-12-25T22:20:24.449Z,86.00
2018-12-25T22:22:55.040Z,85.90
2018-12-25T22:25:27.194Z,86.90
2018-12-25T22:27:57.250Z,88.10
2018-12-25T22:30:27.588Z,88.10
2018-12-25T22:32:57.910Z,88.90
2018-12-25T22:35:28.428Z,88.50
2018-12-25T22:37:58.799Z,88.30
2018-12-25T22:40:29.089Z,88.10
2018-12-25T22:42:59.516Z,88.30
2018-12-25T22:45:48.885Z,88.30
2018-12-25T22:48:19.394Z,88.50
2018-12-25T22:50:49.737Z,89.20
2018-12-25T22:53:20.382Z,89.20
2018-12-25T22:55:50.820Z,89.60
2018-12-25T22:58:21.147Z,89.70
2018-12-25T23:00:51.722Z,89.00
2018-12-25T23:03:22.086Z,88.80
2018-12-25T23:05:52.505Z,88.80
2018-12-25T23:08:23.041Z,89.50
2018-12-25T23:10:53.504Z,89.60
2018-12-25T23:13:23.867Z,89.70
2018-12-25T23:15:54.181Z,89.40
2018-12-25T23:18:24.597Z,90.00
2018-12-25T23:20:54.942Z,90.40
2018-12-25T23:23:25.542Z,90.60
2018-12-25T23:25:56.009Z,90.90
2018-12-25T23:28:26.337Z,91.10
2018-12-25T23:30:56.702Z,91.20
2018-12-25T23:33:27.105Z,91.30
2018-12-25T23:35:57.425Z,91.50
2018-12-25T23:38:27.717Z,91.80
2018-12-25T23:40:58.193Z,92.10
2018-12-25T23:43:28.518Z,92.40
2018-12-25T23:45:58.922Z,92.60
2018-12-25T23:48:29.426Z,92.80
2018-12-25T23:50:59.764Z,93.00
2018-12-25T23:53:30.106Z,93.20
2018-12-25T23:56:00.564Z,93.40
2018-12-25T23:58:30.913Z,93.70
